sensor_id;sensor_type;location;lat;lon;timestamp;P1;durP1;ratioP1;P2;durP2;ratioP2
3085;SDS011;52812;48.960;9.108;2022-10-26T00:00:00;8.90;;;5.03;;
3085;SDS011;52812;48.960;9.108;2022-10-26T00:02:27;8.17;;;5.70;;
3085;SDS011;52812;48.960;9.108;2022-10-26T00:04:53;10.80;;;5.47;;
3085;SDS011;52812;48.960;9.108;2022-10-26T00:07:18;8.47;;;5.77;;
3085;SDS011;52812;48.960;9.108;2022-10-26T00:09:44;6.13;;;4.73;;
3085;SDS011;52812;48.960;9.108;2022-10-26T00:12:09;9.70;;;5.70;;
3085;SDS011;52812;48.960;9.108;2022-10-26T00:14:35;8.13;;;5.60;;
3085;SDS011;52812;48.960;9.108;2022-10-26T00:17:00;8.73;;;5.27;;
3085;SDS011;52812;48.960;9.108;2022-10-26T00:19:26;7.70;;;5.43;;
3085;SDS011;52812;48.960;9.108;2022-10-26T00:21:51;7.37;;;5.57;;
3085;SDS011;52812;48.960;9.108;2022-10-26T00:24:17;8.30;;;5.13;;
3085;SDS011;52812;48.960;9.108;2022-10-26T00:26:43;7.80;;;5.03;;
3085;SDS011;52812;48.960;9.108;2022-10-26T00:29:10;7.00;;;5.00;;
3085;SDS011;52812;48.960;9.108;2022-10-26T00:31:37;12.80;;;5.83;;
3085;SDS011;52812;48.960;9.108;2022-10-26T00:34:03;14.20;;;5.30;;
3085;SDS011;52812;48.960;9.108;2022-10-26T00:36:29;8.17;;;5.23;;
3085;SDS011;52812;48.960;9.108;2022-10-26T00:38:55;8.57;;;5.43;;
3085;SDS011;52812;48.960;9.108;2022-10-26T00:41:22;7.70;;;5.73;;
3085;SDS011;52812;48.960;9.108;2022-10-26T00:43:50;7.60;;;4.50;;
3085;SDS011;52812;48.960;9.108;2022-10-26T00:46:21;11.43;;;5.27;;
3085;SDS011;52812;48.960;9.108;2022-10-26T00:48:55;7.43;;;4.73;;
3085;SDS011;52812;48.960;9.108;2022-10-26T00:51:36;6.83;;;4.70;;
3085;SDS011;52812;48.960;9.108;2022-10-26T00:54:07;7.10;;;4.87;;
3085;SDS011;52812;48.960;9.108;2022-10-26T00:56:37;7.03;;;5.30;;
3085;SDS011;52812;48.960;9.108;2022-10-26T00:59:04;11.27;;;5.00;;
3085;SDS011;52812;48.960;9.108;2022-10-26T01:01:32;7.60;;;5.40;;
3085;SDS011;52812;48.960;9.108;2022-10-26T01:04:00;6.83;;;5.47;;
3085;SDS011;52812;48.960;9.108;2022-10-26T01:06:27;9.50;;;5.47;;
3085;SDS011;52812;48.960;9.108;2022-10-26T01:08:54;8.00;;;4.90;;
3085;SDS011;52812;48.960;9.108;2022-10-26T01:11:19;8.87;;;5.83;;
3085;SDS011;52812;48.960;9.108;2022-10-26T01:13:45;7.30;;;4.87;;
3085;SDS011;52812;48.960;9.108;2022-10-26T01:29:44;10.40;;;6.70;;
3085;SDS011;52812;48.960;9.108;2022-10-26T01:35:06;9.23;;;5.67;;
3085;SDS011;52812;48.960;9.108;2022-10-26T01:37:41;7.53;;;5.80;;
3085;SDS011;52812;48.960;9.108;2022-10-26T01:43:09;8.80;;;5.70;;
3085;SDS011;52812;48.960;9.108;2022-10-26T01:45:38;6.60;;;5.60;;
3085;SDS011;52812;48.960;9.108;2022-10-26T01:48:08;11.23;;;4.97;;
3085;SDS011;52812;48.960;9.108;2022-10-26T01:50:38;9.00;;;5.30;;
3085;SDS011;52812;48.960;9.108;2022-10-26T01:53:05;7.13;;;5.20;;
3085;SDS011;52812;48.960;9.108;2022-10-26T01:58:07;9.43;;;5.67;;
3085;SDS011;52812;48.960;9.108;2022-10-26T02:01:05;6.23;;;4.33;;
3085;SDS011;52812;48.960;9.108;2022-10-26T02:12:13;6.30;;;5.20;;
3085;SDS011;52812;48.960;9.108;2022-10-26T02:14:49;7.20;;;5.17;;
3085;SDS011;52812;48.960;9.108;2022-10-26T02:20:08;7.50;;;5.10;;
3085;SDS011;52812;48.960;9.108;2022-10-26T02:22:46;6.93;;;5.07;;
3085;SDS011;52812;48.960;9.108;2022-10-26T02:25:49;7.50;;;4.93;;
3085;SDS011;52812;48.960;9.108;2022-10-26T02:28:11;6.73;;;4.73;;
3085;SDS011;52812;48.960;9.108;2022-10-26T02:30:40;12.50;;;5.10;;
3085;SDS011;52812;48.960;9.108;2022-10-26T02:33:08;7.67;;;5.70;;
3085;SDS011;52812;48.960;9.108;2022-10-26T02:35:36;9.00;;;5.37;;
3085;SDS011;52812;48.960;9.108;2022-10-26T02:38:05;8.17;;;5.20;;
3085;SDS011;52812;48.960;9.108;2022-10-26T02:40:33;8.73;;;4.90;;
3085;SDS011;52812;48.960;9.108;2022-10-26T02:43:01;8.67;;;4.90;;
3085;SDS011;52812;48.960;9.108;2022-10-26T02:45:45;9.27;;;5.90;;
3085;SDS011;52812;48.960;9.108;2022-10-26T02:48:15;7.80;;;5.40;;
3085;SDS011;52812;48.960;9.108;2022-10-26T02:50:42;8.80;;;5.20;;
3085;SDS011;52812;48.960;9.108;2022-10-26T02:53:24;9.80;;;4.90;;
3085;SDS011;52812;48.960;9.108;2022-10-26T02:55:57;6.70;;;5.63;;
3085;SDS011;52812;48.960;9.108;2022-10-26T02:58:30;7.07;;;5.30;;
3085;SDS011;52812;48.960;9.108;2022-10-26T03:00:59;7.30;;;4.87;;
3085;SDS011;52812;48.960;9.108;2022-10-26T03:03:24;9.20;;;5.23;;
3085;SDS011;52812;48.960;9.108;2022-10-26T03:05:50;9.37;;;5.43;;
3085;SDS011;52812;48.960;9.108;2022-10-26T03:08:15;7.27;;;5.20;;
3085;SDS011;52812;48.960;9.108;2022-10-26T03:10:42;8.87;;;5.70;;
3085;SDS011;52812;48.960;9.108;2022-10-26T03:13:09;5.13;;;4.63;;
3085;SDS011;52812;48.960;9.108;2022-10-26T03:15:35;7.93;;;5.17;;
3085;SDS011;52812;48.960;9.108;2022-10-26T03:18:01;8.27;;;5.50;;
3085;SDS011;52812;48.960;9.108;2022-10-26T03:20:27;8.87;;;5.30;;
3085;SDS011;52812;48.960;9.108;2022-10-26T03:22:52;7.03;;;5.10;;
3085;SDS011;52812;48.960;9.108;2022-10-26T03:25:18;11.87;;;5.43;;
3085;SDS011;52812;48.960;9.108;2022-10-26T03:27:43;9.00;;;5.67;;
3085;SDS011;52812;48.960;9.108;2022-10-26T03:30:09;6.83;;;5.23;;
3085;SDS011;52812;48.960;9.108;2022-10-26T03:32:35;9.27;;;5.80;;
3085;SDS011;52812;48.960;9.108;2022-10-26T03:35:01;13.30;;;5.43;;
3085;SDS011;52812;48.960;9.108;2022-10-26T03:37:27;8.43;;;5.53;;
3085;SDS011;52812;48.960;9.108;2022-10-26T03:39:53;8.50;;;5.40;;
3085;SDS011;52812;48.960;9.108;2022-10-26T03:42:18;8.77;;;5.10;;
3085;SDS011;52812;48.960;9.108;2022-10-26T03:44:44;8.50;;;5.53;;
3085;SDS011;52812;48.960;9.108;2022-10-26T03:47:11;7.30;;;5.60;;
3085;SDS011;52812;48.960;9.108;2022-10-26T03:49:36;8.80;;;5.50;;
3085;SDS011;52812;48.960;9.108;2022-10-26T03:52:02;9.07;;;6.30;;
3085;SDS011;52812;48.960;9.108;2022-10-26T03:54:28;9.47;;;5.43;;
3085;SDS011;52812;48.960;9.108;2022-10-26T03:56:53;7.80;;;5.20;;
3085;SDS011;52812;48.960;9.108;2022-10-26T03:59:19;12.73;;;5.97;;
3085;SDS011;52812;48.960;9.108;2022-10-26T04:01:44;9.90;;;6.00;;
3085;SDS011;52812;48.960;9.108;2022-10-26T04:04:10;13.23;;;6.40;;
3085;SDS011;52812;48.960;9.108;2022-10-26T04:06:35;9.53;;;5.50;;
3085;SDS011;52812;48.960;9.108;2022-10-26T04:09:01;10.70;;;6.23;;
3085;SDS011;52812;48.960;9.108;2022-10-26T04:11:28;10.07;;;6.10;;
3085;SDS011;52812;48.960;9.108;2022-10-26T04:13:54;12.43;;;5.87;;
3085;SDS011;52812;48.960;9.108;2022-10-26T04:16:19;7.90;;;5.60;;
3085;SDS011;52812;48.960;9.108;2022-10-26T04:18:46;10.80;;;6.17;;
3085;SDS011;52812;48.960;9.108;2022-10-26T04:21:11;10.67;;;5.97;;
3085;SDS011;52812;48.960;9.108;2022-10-26T04:23:37;6.60;;;5.60;;
3085;SDS011;52812;48.960;9.108;2022-10-26T04:26:03;10.00;;;5.20;;
3085;SDS011;52812;48.960;9.108;2022-10-26T04:28:29;9.47;;;5.57;;
3085;SDS011;52812;48.960;9.108;2022-10-26T04:30:55;8.73;;;5.37;;
3085;SDS011;52812;48.960;9.108;2022-10-26T04:33:20;7.73;;;4.87;;
3085;SDS011;52812;48.960;9.108;2022-10-26T04:35:46;7.30;;;5.33;;
3085;SDS011;52812;48.960;9.108;2022-10-26T04:38:12;8.43;;;5.37;;
3085;SDS011;52812;48.960;9.108;2022-10-26T04:40:38;9.30;;;5.07;;
3085;SDS011;52812;48.960;9.108;2022-10-26T04:43:05;7.60;;;5.10;;
3085;SDS011;52812;48.960;9.108;2022-10-26T04:45:31;9.87;;;5.40;;
3085;SDS011;52812;48.960;9.108;2022-10-26T04:48:00;6.60;;;5.00;;
3085;SDS011;52812;48.960;9.108;2022-10-26T04:50:30;6.93;;;4.80;;
3085;SDS011;52812;48.960;9.108;2022-10-26T04:52:56;5.40;;;4.80;;
3085;SDS011;52812;48.960;9.108;2022-10-26T04:55:23;10.83;;;5.50;;
3085;SDS011;52812;48.960;9.108;2022-10-26T04:57:48;11.50;;;5.40;;
3085;SDS011;52812;48.960;9.108;2022-10-26T05:00:14;10.70;;;5.70;;
3085;SDS011;52812;48.960;9.108;2022-10-26T05:02:40;11.03;;;5.30;;
3085;SDS011;52812;48.960;9.108;2022-10-26T05:05:05;9.13;;;5.70;;
3085;SDS011;52812;48.960;9.108;2022-10-26T05:07:31;8.63;;;5.90;;
3085;SDS011;52812;48.960;9.108;2022-10-26T05:09:56;7.00;;;5.70;;
3085;SDS011;52812;48.960;9.108;2022-10-26T05:12:22;10.77;;;6.40;;
3085;SDS011;52812;48.960;9.108;2022-10-26T05:14:48;8.63;;;5.73;;
3085;SDS011;52812;48.960;9.108;2022-10-26T05:17:13;9.90;;;5.93;;
3085;SDS011;52812;48.960;9.108;2022-10-26T05:19:39;10.37;;;5.77;;
3085;SDS011;52812;48.960;9.108;2022-10-26T05:22:04;9.83;;;5.57;;
3085;SDS011;52812;48.960;9.108;2022-10-26T05:24:30;7.23;;;5.57;;
3085;SDS011;52812;48.960;9.108;2022-10-26T05:26:55;8.10;;;5.60;;
3085;SDS011;52812;48.960;9.108;2022-10-26T05:29:21;6.50;;;5.00;;
3085;SDS011;52812;48.960;9.108;2022-10-26T05:31:46;9.90;;;5.23;;
3085;SDS011;52812;48.960;9.108;2022-10-26T05:34:12;9.70;;;5.87;;
3085;SDS011;52812;48.960;9.108;2022-10-26T05:36:37;11.77;;;5.43;;
3085;SDS011;52812;48.960;9.108;2022-10-26T05:39:03;7.73;;;5.17;;
3085;SDS011;52812;48.960;9.108;2022-10-26T05:41:29;7.10;;;5.50;;
3085;SDS011;52812;48.960;9.108;2022-10-26T05:43:54;7.70;;;5.63;;
3085;SDS011;52812;48.960;9.108;2022-10-26T05:46:20;8.60;;;4.90;;
3085;SDS011;52812;48.960;9.108;2022-10-26T05:48:45;9.03;;;5.83;;
3085;SDS011;52812;48.960;9.108;2022-10-26T05:51:11;9.47;;;5.53;;
3085;SDS011;52812;48.960;9.108;2022-10-26T05:53:37;12.20;;;5.10;;
3085;SDS011;52812;48.960;9.108;2022-10-26T05:56:07;8.50;;;5.30;;
3085;SDS011;52812;48.960;9.108;2022-10-26T05:58:45;9.57;;;5.63;;
3085;SDS011;52812;48.960;9.108;2022-10-26T06:01:25;8.53;;;5.57;;
3085;SDS011;52812;48.960;9.108;2022-10-26T06:06:53;6.93;;;5.23;;
3085;SDS011;52812;48.960;9.108;2022-10-26T06:09:19;6.63;;;5.40;;
3085;SDS011;52812;48.960;9.108;2022-10-26T06:11:45;6.47;;;4.57;;
3085;SDS011;52812;48.960;9.108;2022-10-26T06:14:11;6.20;;;5.40;;
3085;SDS011;52812;48.960;9.108;2022-10-26T06:16:49;5.40;;;4.47;;
3085;SDS011;52812;48.960;9.108;2022-10-26T06:19:31;7.57;;;4.90;;
3085;SDS011;52812;48.960;9.108;2022-10-26T06:22:27;7.27;;;4.90;;
3085;SDS011;52812;48.960;9.108;2022-10-26T06:28:29;11.00;;;4.57;;
3085;SDS011;52812;48.960;9.108;2022-10-26T06:31:04;8.27;;;4.60;;
3085;SDS011;52812;48.960;9.108;2022-10-26T06:33:31;10.17;;;5.10;;
3085;SDS011;52812;48.960;9.108;2022-10-26T06:36:13;5.20;;;4.70;;
3085;SDS011;52812;48.960;9.108;2022-10-26T06:39:17;13.87;;;5.43;;
3085;SDS011;52812;48.960;9.108;2022-10-26T06:41:44;8.77;;;4.73;;
3085;SDS011;52812;48.960;9.108;2022-10-26T06:44:11;8.60;;;5.27;;
3085;SDS011;52812;48.960;9.108;2022-10-26T06:46:46;18.30;;;5.90;;
3085;SDS011;52812;48.960;9.108;2022-10-26T06:51:58;10.10;;;5.60;;
3085;SDS011;52812;48.960;9.108;2022-10-26T06:57:18;9.60;;;6.20;;
3085;SDS011;52812;48.960;9.108;2022-10-26T07:00:06;10.70;;;6.33;;
3085;SDS011;52812;48.960;9.108;2022-10-26T07:02:43;11.93;;;5.90;;
3085;SDS011;52812;48.960;9.108;2022-10-26T07:05:09;10.10;;;4.87;;
3085;SDS011;52812;48.960;9.108;2022-10-26T07:07:38;9.17;;;5.30;;
3085;SDS011;52812;48.960;9.108;2022-10-26T07:10:06;11.47;;;5.50;;
3085;SDS011;52812;48.960;9.108;2022-10-26T07:12:32;9.13;;;5.20;;
3085;SDS011;52812;48.960;9.108;2022-10-26T07:14:58;7.50;;;5.00;;
3085;SDS011;52812;48.960;9.108;2022-10-26T07:17:24;6.30;;;4.53;;
3085;SDS011;52812;48.960;9.108;2022-10-26T07:19:52;6.90;;;4.77;;
3085;SDS011;52812;48.960;9.108;2022-10-26T07:22:18;17.17;;;5.17;;
3085;SDS011;52812;48.960;9.108;2022-10-26T07:24:43;7.23;;;4.20;;
3085;SDS011;52812;48.960;9.108;2022-10-26T07:27:09;5.70;;;3.90;;
3085;SDS011;52812;48.960;9.108;2022-10-26T07:29:35;6.63;;;4.10;;
3085;SDS011;52812;48.960;9.108;2022-10-26T07:32:00;10.80;;;4.40;;
3085;SDS011;52812;48.960;9.108;2022-10-26T07:34:26;4.53;;;3.80;;
3085;SDS011;52812;48.960;9.108;2022-10-26T07:36:51;6.10;;;4.03;;
3085;SDS011;52812;48.960;9.108;2022-10-26T07:39:17;5.90;;;4.30;;
3085;SDS011;52812;48.960;9.108;2022-10-26T07:41:43;6.17;;;3.90;;
3085;SDS011;52812;48.960;9.108;2022-10-26T07:44:10;8.23;;;3.97;;
3085;SDS011;52812;48.960;9.108;2022-10-26T07:46:36;8.27;;;4.43;;
3085;SDS011;52812;48.960;9.108;2022-10-26T07:49:19;13.47;;;4.60;;
3085;SDS011;52812;48.960;9.108;2022-10-26T07:52:36;7.50;;;4.07;;
3085;SDS011;52812;48.960;9.108;2022-10-26T07:58:59;6.00;;;3.90;;
3085;SDS011;52812;48.960;9.108;2022-10-26T08:07:45;8.83;;;4.97;;
3085;SDS011;52812;48.960;9.108;2022-10-26T08:10:13;8.40;;;4.30;;
3085;SDS011;52812;48.960;9.108;2022-10-26T08:12:39;5.97;;;4.43;;
3085;SDS011;52812;48.960;9.108;2022-10-26T08:15:06;6.10;;;4.60;;
3085;SDS011;52812;48.960;9.108;2022-10-26T08:17:32;7.17;;;5.00;;
3085;SDS011;52812;48.960;9.108;2022-10-26T08:19:58;7.90;;;4.60;;
3085;SDS011;52812;48.960;9.108;2022-10-26T08:22:24;8.67;;;4.50;;
3085;SDS011;52812;48.960;9.108;2022-10-26T08:24:50;9.23;;;5.23;;
3085;SDS011;52812;48.960;9.108;2022-10-26T08:27:15;7.60;;;5.20;;
3085;SDS011;52812;48.960;9.108;2022-10-26T08:29:41;7.53;;;4.93;;
3085;SDS011;52812;48.960;9.108;2022-10-26T08:32:07;9.13;;;4.87;;
3085;SDS011;52812;48.960;9.108;2022-10-26T08:34:33;7.93;;;5.47;;
3085;SDS011;52812;48.960;9.108;2022-10-26T08:36:59;8.00;;;5.23;;
3085;SDS011;52812;48.960;9.108;2022-10-26T08:39:24;6.83;;;4.80;;
3085;SDS011;52812;48.960;9.108;2022-10-26T08:41:54;9.80;;;5.07;;
3085;SDS011;52812;48.960;9.108;2022-10-26T08:44:35;7.30;;;4.63;;
3085;SDS011;52812;48.960;9.108;2022-10-26T08:49:48;11.30;;;5.27;;
3085;SDS011;52812;48.960;9.108;2022-10-26T08:52:16;8.47;;;5.60;;
3085;SDS011;52812;48.960;9.108;2022-10-26T08:54:48;9.70;;;5.50;;
3085;SDS011;52812;48.960;9.108;2022-10-26T08:57:18;7.50;;;5.60;;
3085;SDS011;52812;48.960;9.108;2022-10-26T08:59:56;10.80;;;5.00;;
3085;SDS011;52812;48.960;9.108;2022-10-26T09:02:25;9.50;;;5.37;;
3085;SDS011;52812;48.960;9.108;2022-10-26T09:04:51;12.27;;;5.87;;
3085;SDS011;52812;48.960;9.108;2022-10-26T09:13:05;13.03;;;5.60;;
3085;SDS011;52812;48.960;9.108;2022-10-26T09:26:30;6.60;;;4.10;;
3085;SDS011;52812;48.960;9.108;2022-10-26T09:29:04;8.77;;;4.40;;
3085;SDS011;52812;48.960;9.108;2022-10-26T09:31:40;7.37;;;4.83;;
3085;SDS011;52812;48.960;9.108;2022-10-26T09:34:11;10.00;;;4.23;;
3085;SDS011;52812;48.960;9.108;2022-10-26T09:36:52;8.50;;;4.23;;
3085;SDS011;52812;48.960;9.108;2022-10-26T09:45:10;11.77;;;3.13;;
3085;SDS011;52812;48.960;9.108;2022-10-26T09:47:50;5.00;;;3.00;;
3085;SDS011;52812;48.960;9.108;2022-10-26T09:50:34;6.90;;;2.90;;
3085;SDS011;52812;48.960;9.108;2022-10-26T09:53:01;6.00;;;3.37;;
3085;SDS011;52812;48.960;9.108;2022-10-26T09:55:29;6.00;;;3.13;;
3085;SDS011;52812;48.960;9.108;2022-10-26T09:57:56;4.80;;;2.87;;
3085;SDS011;52812;48.960;9.108;2022-10-26T10:00:26;5.30;;;2.80;;
3085;SDS011;52812;48.960;9.108;2022-10-26T10:02:56;3.47;;;3.17;;
3085;SDS011;52812;48.960;9.108;2022-10-26T10:10:52;6.13;;;3.03;;
3085;SDS011;52812;48.960;9.108;2022-10-26T10:13:22;5.63;;;3.07;;
3085;SDS011;52812;48.960;9.108;2022-10-26T10:15:53;9.27;;;3.20;;
3085;SDS011;52812;48.960;9.108;2022-10-26T10:18:21;7.90;;;3.20;;
3085;SDS011;52812;48.960;9.108;2022-10-26T10:20:54;5.37;;;2.83;;
3085;SDS011;52812;48.960;9.108;2022-10-26T10:24:10;6.30;;;3.00;;
3085;SDS011;52812;48.960;9.108;2022-10-26T10:26:19;5.80;;;3.17;;
3085;SDS011;52812;48.960;9.108;2022-10-26T10:28:55;4.80;;;2.93;;
3085;SDS011;52812;48.960;9.108;2022-10-26T10:31:26;12.40;;;3.37;;
3085;SDS011;52812;48.960;9.108;2022-10-26T10:33:56;8.40;;;2.93;;
3085;SDS011;52812;48.960;9.108;2022-10-26T10:36:23;6.20;;;3.10;;
3085;SDS011;52812;48.960;9.108;2022-10-26T10:38:53;5.00;;;2.60;;
3085;SDS011;52812;48.960;9.108;2022-10-26T10:44:02;5.97;;;3.17;;
3085;SDS011;52812;48.960;9.108;2022-10-26T10:46:33;6.07;;;2.97;;
3085;SDS011;52812;48.960;9.108;2022-10-26T10:49:05;5.90;;;3.20;;
3085;SDS011;52812;48.960;9.108;2022-10-26T10:51:42;4.50;;;2.90;;
3085;SDS011;52812;48.960;9.108;2022-10-26T10:54:31;7.67;;;3.43;;
3085;SDS011;52812;48.960;9.108;2022-10-26T10:57:19;4.87;;;3.37;;
3085;SDS011;52812;48.960;9.108;2022-10-26T11:00:04;7.37;;;2.73;;
3085;SDS011;52812;48.960;9.108;2022-10-26T11:08:08;4.63;;;3.10;;
3085;SDS011;52812;48.960;9.108;2022-10-26T11:11:33;9.00;;;3.03;;
3085;SDS011;52812;48.960;9.108;2022-10-26T11:13:49;6.43;;;3.20;;
3085;SDS011;52812;48.960;9.108;2022-10-26T11:16:29;5.40;;;3.20;;
3085;SDS011;52812;48.960;9.108;2022-10-26T11:21:39;9.03;;;3.20;;
3085;SDS011;52812;48.960;9.108;2022-10-26T11:24:17;11.47;;;3.47;;
3085;SDS011;52812;48.960;9.108;2022-10-26T11:26:55;8.17;;;2.83;;
3085;SDS011;52812;48.960;9.108;2022-10-26T11:30:04;5.13;;;2.73;;
3085;SDS011;52812;48.960;9.108;2022-10-26T11:43:42;5.70;;;2.40;;
3085;SDS011;52812;48.960;9.108;2022-10-26T11:57:06;5.13;;;2.47;;
3085;SDS011;52812;48.960;9.108;2022-10-26T11:59:36;5.00;;;2.30;;
3085;SDS011;52812;48.960;9.108;2022-10-26T12:02:12;4.20;;;2.30;;
3085;SDS011;52812;48.960;9.108;2022-10-26T12:04:44;4.90;;;2.00;;
3085;SDS011;52812;48.960;9.108;2022-10-26T12:07:15;4.63;;;2.30;;
3085;SDS011;52812;48.960;9.108;2022-10-26T12:09:45;4.20;;;2.10;;
3085;SDS011;52812;48.960;9.108;2022-10-26T12:14:45;6.57;;;2.70;;
3085;SDS011;52812;48.960;9.108;2022-10-26T12:20:09;6.73;;;2.50;;
3085;SDS011;52812;48.960;9.108;2022-10-26T12:22:39;3.50;;;2.10;;
3085;SDS011;52812;48.960;9.108;2022-10-26T12:35:30;5.90;;;2.77;;
3085;SDS011;52812;48.960;9.108;2022-10-26T12:40:48;12.27;;;2.50;;
3085;SDS011;52812;48.960;9.108;2022-10-26T12:43:37;6.17;;;2.40;;
3085;SDS011;52812;48.960;9.108;2022-10-26T12:53:55;10.73;;;3.03;;
3085;SDS011;52812;48.960;9.108;2022-10-26T12:56:30;4.37;;;2.47;;
3085;SDS011;52812;48.960;9.108;2022-10-26T13:02:04;6.53;;;2.50;;
3085;SDS011;52812;48.960;9.108;2022-10-26T13:04:55;6.83;;;2.93;;
3085;SDS011;52812;48.960;9.108;2022-10-26T13:07:36;6.13;;;2.67;;
3085;SDS011;52812;48.960;9.108;2022-10-26T13:15:23;7.00;;;2.80;;
3085;SDS011;52812;48.960;9.108;2022-10-26T13:20:31;6.23;;;2.53;;
3085;SDS011;52812;48.960;9.108;2022-10-26T13:23:00;5.27;;;2.57;;
3085;SDS011;52812;48.960;9.108;2022-10-26T13:25:27;4.33;;;2.50;;
3085;SDS011;52812;48.960;9.108;2022-10-26T13:28:02;6.20;;;2.63;;
3085;SDS011;52812;48.960;9.108;2022-10-26T13:33:00;6.67;;;3.07;;
3085;SDS011;52812;48.960;9.108;2022-10-26T13:35:27;12.77;;;3.57;;
3085;SDS011;52812;48.960;9.108;2022-10-26T13:37:55;6.70;;;2.53;;
3085;SDS011;52812;48.960;9.108;2022-10-26T13:40:25;6.10;;;2.90;;
3085;SDS011;52812;48.960;9.108;2022-10-26T13:42:56;5.07;;;2.40;;
3085;SDS011;52812;48.960;9.108;2022-10-26T13:45:27;6.73;;;2.90;;
3085;SDS011;52812;48.960;9.108;2022-10-26T13:47:59;6.10;;;3.13;;
3085;SDS011;52812;48.960;9.108;2022-10-26T13:50:26;3.60;;;2.53;;
3085;SDS011;52812;48.960;9.108;2022-10-26T13:52:58;4.80;;;2.90;;
3085;SDS011;52812;48.960;9.108;2022-10-26T13:55:37;4.80;;;2.93;;
3085;SDS011;52812;48.960;9.108;2022-10-26T13:58:42;5.20;;;2.30;;
3085;SDS011;52812;48.960;9.108;2022-10-26T14:01:15;6.60;;;2.57;;
3085;SDS011;52812;48.960;9.108;2022-10-26T14:03:42;4.70;;;2.57;;
3085;SDS011;52812;48.960;9.108;2022-10-26T14:08:46;6.27;;;2.47;;
3085;SDS011;52812;48.960;9.108;2022-10-26T14:11:16;6.30;;;2.80;;
3085;SDS011;52812;48.960;9.108;2022-10-26T14:13:45;4.70;;;2.57;;
3085;SDS011;52812;48.960;9.108;2022-10-26T14:16:14;6.57;;;2.60;;
3085;SDS011;52812;48.960;9.108;2022-10-26T14:18:44;7.13;;;2.63;;
3085;SDS011;52812;48.960;9.108;2022-10-26T14:21:13;12.43;;;2.80;;
3085;SDS011;52812;48.960;9.108;2022-10-26T14:23:55;5.90;;;2.60;;
3085;SDS011;52812;48.960;9.108;2022-10-26T14:28:57;5.90;;;2.77;;
3085;SDS011;52812;48.960;9.108;2022-10-26T14:31:31;7.37;;;3.37;;
3085;SDS011;52812;48.960;9.108;2022-10-26T14:33:59;6.90;;;2.93;;
3085;SDS011;52812;48.960;9.108;2022-10-26T14:36:29;6.37;;;2.80;;
3085;SDS011;52812;48.960;9.108;2022-10-26T14:38:58;6.50;;;2.53;;
3085;SDS011;52812;48.960;9.108;2022-10-26T14:41:27;4.87;;;2.93;;
3085;SDS011;52812;48.960;9.108;2022-10-26T14:43:54;6.53;;;2.70;;
3085;SDS011;52812;48.960;9.108;2022-10-26T14:46:21;7.53;;;2.37;;
3085;SDS011;52812;48.960;9.108;2022-10-26T14:48:51;5.57;;;2.60;;
3085;SDS011;52812;48.960;9.108;2022-10-26T14:51:28;8.17;;;2.80;;
3085;SDS011;52812;48.960;9.108;2022-10-26T14:53:58;7.10;;;2.80;;
3085;SDS011;52812;48.960;9.108;2022-10-26T14:56:30;4.70;;;2.50;;
3085;SDS011;52812;48.960;9.108;2022-10-26T15:02:01;7.73;;;2.60;;
3085;SDS011;52812;48.960;9.108;2022-10-26T15:07:06;3.47;;;2.30;;
3085;SDS011;52812;48.960;9.108;2022-10-26T15:12:18;5.00;;;2.63;;
3085;SDS011;52812;48.960;9.108;2022-10-26T15:14:44;5.17;;;2.83;;
3085;SDS011;52812;48.960;9.108;2022-10-26T15:17:23;6.37;;;3.30;;
3085;SDS011;52812;48.960;9.108;2022-10-26T15:19:56;5.60;;;3.00;;
3085;SDS011;52812;48.960;9.108;2022-10-26T15:22:26;5.97;;;2.80;;
3085;SDS011;52812;48.960;9.108;2022-10-26T15:24:53;7.07;;;2.70;;
3085;SDS011;52812;48.960;9.108;2022-10-26T15:27:22;7.10;;;2.80;;
3085;SDS011;52812;48.960;9.108;2022-10-26T15:29:49;7.20;;;2.43;;
3085;SDS011;52812;48.960;9.108;2022-10-26T15:32:37;10.53;;;2.50;;
3085;SDS011;52812;48.960;9.108;2022-10-26T15:35:19;5.53;;;2.67;;
3085;SDS011;52812;48.960;9.108;2022-10-26T15:37:49;9.20;;;2.90;;
3085;SDS011;52812;48.960;9.108;2022-10-26T15:40:16;5.13;;;2.33;;
3085;SDS011;52812;48.960;9.108;2022-10-26T15:42:42;7.07;;;2.70;;
3085;SDS011;52812;48.960;9.108;2022-10-26T15:47:43;5.47;;;2.80;;
3085;SDS011;52812;48.960;9.108;2022-10-26T15:50:14;6.37;;;2.47;;
3085;SDS011;52812;48.960;9.108;2022-10-26T15:52:41;6.23;;;2.40;;
3085;SDS011;52812;48.960;9.108;2022-10-26T15:55:07;6.80;;;3.00;;
3085;SDS011;52812;48.960;9.108;2022-10-26T15:57:34;5.47;;;3.10;;
3085;SDS011;52812;48.960;9.108;2022-10-26T16:00:00;4.60;;;3.00;;
3085;SDS011;52812;48.960;9.108;2022-10-26T16:02:25;6.20;;;2.80;;
3085;SDS011;52812;48.960;9.108;2022-10-26T16:04:51;5.77;;;2.80;;
3085;SDS011;52812;48.960;9.108;2022-10-26T16:07:17;5.57;;;2.60;;
3085;SDS011;52812;48.960;9.108;2022-10-26T16:09:45;6.43;;;2.50;;
3085;SDS011;52812;48.960;9.108;2022-10-26T16:12:11;9.30;;;2.63;;
3085;SDS011;52812;48.960;9.108;2022-10-26T16:14:37;9.70;;;2.87;;
3085;SDS011;52812;48.960;9.108;2022-10-26T16:17:03;5.53;;;2.87;;
3085;SDS011;52812;48.960;9.108;2022-10-26T16:19:30;5.30;;;2.80;;
3085;SDS011;52812;48.960;9.108;2022-10-26T16:21:57;5.23;;;2.70;;
3085;SDS011;52812;48.960;9.108;2022-10-26T16:24:22;7.40;;;2.73;;
3085;SDS011;52812;48.960;9.108;2022-10-26T16:26:48;7.63;;;3.13;;
3085;SDS011;52812;48.960;9.108;2022-10-26T16:29:14;11.43;;;2.80;;
3085;SDS011;52812;48.960;9.108;2022-10-26T16:31:39;10.00;;;3.43;;
3085;SDS011;52812;48.960;9.108;2022-10-26T16:34:05;6.50;;;2.80;;
3085;SDS011;52812;48.960;9.108;2022-10-26T16:36:31;7.50;;;2.77;;
3085;SDS011;52812;48.960;9.108;2022-10-26T16:38:59;10.37;;;5.10;;
3085;SDS011;52812;48.960;9.108;2022-10-26T16:41:25;15.90;;;12.23;;
3085;SDS011;52812;48.960;9.108;2022-10-26T16:43:51;13.40;;;8.60;;
3085;SDS011;52812;48.960;9.108;2022-10-26T16:46:17;10.57;;;6.80;;
3085;SDS011;52812;48.960;9.108;2022-10-26T16:48:45;12.93;;;5.80;;
3085;SDS011;52812;48.960;9.108;2022-10-26T16:51:16;8.60;;;3.97;;
3085;SDS011;52812;48.960;9.108;2022-10-26T16:53:46;7.73;;;3.30;;
3085;SDS011;52812;48.960;9.108;2022-10-26T16:56:14;10.00;;;3.87;;
3085;SDS011;52812;48.960;9.108;2022-10-26T16:58:42;7.20;;;3.57;;
3085;SDS011;52812;48.960;9.108;2022-10-26T17:01:08;5.27;;;4.23;;
3085;SDS011;52812;48.960;9.108;2022-10-26T17:03:36;7.20;;;3.23;;
3085;SDS011;52812;48.960;9.108;2022-10-26T17:06:03;8.70;;;3.90;;
3085;SDS011;52812;48.960;9.108;2022-10-26T17:08:31;6.63;;;4.07;;
3085;SDS011;52812;48.960;9.108;2022-10-26T17:11:02;6.97;;;4.30;;
3085;SDS011;52812;48.960;9.108;2022-10-26T17:13:36;20.40;;;15.73;;
3085;SDS011;52812;48.960;9.108;2022-10-26T17:16:12;11.07;;;8.30;;
3085;SDS011;52812;48.960;9.108;2022-10-26T17:18:41;6.53;;;5.10;;
3085;SDS011;52812;48.960;9.108;2022-10-26T17:21:08;7.40;;;4.10;;
3085;SDS011;52812;48.960;9.108;2022-10-26T17:23:36;7.40;;;4.40;;
3085;SDS011;52812;48.960;9.108;2022-10-26T17:26:05;6.40;;;3.97;;
3085;SDS011;52812;48.960;9.108;2022-10-26T17:28:32;7.33;;;3.77;;
3085;SDS011;52812;48.960;9.108;2022-10-26T17:33:32;8.33;;;4.50;;
3085;SDS011;52812;48.960;9.108;2022-10-26T17:35:58;10.40;;;4.90;;
3085;SDS011;52812;48.960;9.108;2022-10-26T17:38:24;11.37;;;5.40;;
3085;SDS011;52812;48.960;9.108;2022-10-26T17:40:50;9.93;;;5.33;;
3085;SDS011;52812;48.960;9.108;2022-10-26T17:43:16;8.27;;;5.50;;
3085;SDS011;52812;48.960;9.108;2022-10-26T17:45:41;6.87;;;4.87;;
3085;SDS011;52812;48.960;9.108;2022-10-26T17:48:07;9.53;;;3.27;;
3085;SDS011;52812;48.960;9.108;2022-10-26T17:50:33;7.60;;;3.40;;
3085;SDS011;52812;48.960;9.108;2022-10-26T17:52:58;6.60;;;3.30;;
3085;SDS011;52812;48.960;9.108;2022-10-26T17:55:24;10.97;;;7.70;;
3085;SDS011;52812;48.960;9.108;2022-10-26T17:57:50;10.33;;;5.30;;
3085;SDS011;52812;48.960;9.108;2022-10-26T18:00:15;11.60;;;6.10;;
3085;SDS011;52812;48.960;9.108;2022-10-26T18:02:42;8.97;;;5.63;;
3085;SDS011;52812;48.960;9.108;2022-10-26T18:05:08;10.07;;;6.10;;
3085;SDS011;52812;48.960;9.108;2022-10-26T18:07:34;12.47;;;4.60;;
3085;SDS011;52812;48.960;9.108;2022-10-26T18:09:59;9.60;;;4.43;;